createdAt,value
2019-03-25T00:02:15.545Z,6.90
2019-03-25T00:04:48.487Z,6.82
2019-03-25T00:07:17.687Z,6.66
2019-03-25T00:09:46.840Z,6.66
2019-03-25T00:12:15.999Z,6.65
2019-03-25T00:14:45.185Z,6.71
2019-03-25T00:17:14.446Z,6.82
2019-03-25T00:19:43.614Z,6.92
2019-03-25T00:22:12.780Z,6.94
2019-03-25T00:24:41.944Z,7.04
2019-03-25T00:27:11.113Z,7.05
2019-03-25T00:29:40.302Z,6.86
2019-03-25T00:32:09.543Z,6.80
2019-03-25T00:34:38.925Z,6.72
2019-03-25T00:37:08.089Z,6.56
2019-03-25T00:39:37.286Z,6.58
2019-03-25T00:42:06.532Z,6.45
2019-03-25T00:44:36.211Z,6.22
2019-03-25T00:47:05.485Z,6.33
2019-03-25T00:49:34.617Z,6.23
2019-03-25T00:52:05.910Z,6.29
2019-03-25T00:54:35.067Z,6.34
2019-03-25T00:57:04.263Z,6.22
2019-03-25T00:59:33.407Z,6.29
2019-03-25T01:02:02.649Z,6.25
2019-03-25T01:04:31.896Z,6.15
2019-03-25T01:07:01.105Z,6.21
2019-03-25T01:09:30.284Z,6.24
2019-03-25T01:11:59.698Z,6.19
2019-03-25T01:14:28.863Z,6.20
2019-03-25T01:16:58.024Z,6.03
2019-03-25T01:19:27.242Z,6.14
2019-03-25T01:21:56.522Z,6.01
2019-03-25T01:24:27.005Z,5.96
2019-03-25T01:26:56.113Z,6.03
2019-03-25T01:29:25.337Z,5.88
2019-03-25T01:31:54.672Z,5.89
2019-03-25T01:34:23.829Z,5.68
2019-03-25T01:36:52.984Z,5.65
2019-03-25T01:39:22.165Z,5.76
2019-03-25T01:41:51.325Z,5.76
2019-03-25T01:44:20.501Z,5.81
2019-03-25T01:46:49.650Z,5.95
2019-03-25T01:49:18.837Z,5.88
2019-03-25T01:51:47.974Z,5.86
2019-03-25T01:54:17.153Z,5.92
2019-03-25T01:56:46.391Z,5.96
2019-03-25T01:59:15.556Z,5.73
2019-03-25T02:01:44.765Z,5.73
2019-03-25T02:04:13.964Z,5.54
2019-03-25T02:06:43.181Z,5.63
2019-03-25T02:09:12.350Z,5.72
2019-03-25T02:11:41.525Z,5.82
2019-03-25T02:14:10.698Z,5.94
2019-03-25T02:16:39.895Z,6.10
2019-03-25T02:19:09.060Z,5.88
2019-03-25T02:21:38.218Z,5.67
2019-03-25T02:24:07.375Z,5.42
2019-03-25T02:26:36.547Z,5.49
2019-03-25T02:29:05.697Z,5.23
2019-03-25T02:31:34.887Z,5.21
2019-03-25T02:34:05.379Z,5.20
2019-03-25T02:36:34.452Z,5.10
2019-03-25T02:39:05.241Z,5.20
2019-03-25T02:41:34.406Z,5.15
2019-03-25T02:44:03.584Z,5.10
2019-03-25T02:46:32.728Z,4.68
2019-03-25T02:49:01.936Z,4.80
2019-03-25T02:51:31.092Z,4.87
2019-03-25T02:54:00.263Z,4.77
2019-03-25T02:56:29.438Z,4.76
2019-03-25T02:58:58.604Z,4.60
2019-03-25T03:01:27.821Z,4.63
2019-03-25T03:03:56.980Z,4.59
2019-03-25T03:06:26.504Z,4.49
2019-03-25T03:08:55.701Z,4.49
2019-03-25T03:11:24.867Z,4.49
2019-03-25T03:13:54.028Z,4.33
2019-03-25T03:16:23.257Z,4.31
2019-03-25T03:18:52.396Z,4.26
2019-03-25T03:21:21.545Z,4.35
2019-03-25T03:23:50.712Z,4.41
2019-03-25T03:26:20.476Z,4.33
2019-03-25T03:28:49.656Z,4.35
2019-03-25T03:31:18.794Z,4.36
2019-03-25T03:33:47.967Z,4.07
2019-03-25T03:36:17.125Z,4.15
2019-03-25T03:38:46.309Z,4.24
2019-03-25T03:41:15.477Z,4.27
2019-03-25T03:43:44.674Z,4.24
2019-03-25T03:46:13.988Z,4.24
2019-03-25T03:48:43.140Z,4.10
2019-03-25T03:51:12.559Z,4.02
2019-03-25T03:53:41.818Z,4.08
2019-03-25T03:56:13.530Z,4.02
2019-03-25T03:58:43.548Z,4.07
2019-03-25T04:01:12.714Z,3.81
2019-03-25T04:03:41.910Z,3.74
2019-03-25T04:06:11.067Z,3.71
2019-03-25T04:08:40.343Z,3.69
2019-03-25T04:11:09.494Z,3.60
2019-03-25T04:13:38.711Z,3.82
2019-03-25T04:16:07.869Z,4.00
2019-03-25T04:18:38.099Z,3.76
2019-03-25T04:21:07.277Z,3.82
2019-03-25T04:23:36.438Z,3.90
2019-03-25T04:26:05.695Z,3.75
2019-03-25T04:28:35.298Z,3.58
2019-03-25T04:31:04.466Z,3.36
2019-03-25T04:33:33.619Z,3.18
2019-03-25T04:36:02.793Z,3.20
2019-03-25T04:38:32.183Z,3.28
2019-03-25T04:41:01.445Z,3.33
2019-03-25T04:43:30.586Z,3.16
2019-03-25T04:45:59.755Z,3.06
2019-03-25T04:48:28.937Z,3.19
2019-03-25T04:50:58.099Z,3.14
2019-03-25T04:53:27.261Z,3.23
2019-03-25T04:55:56.425Z,3.25
2019-03-25T04:58:25.593Z,3.17
2019-03-25T05:00:54.767Z,3.28
2019-03-25T05:03:23.963Z,3.31
2019-03-25T05:05:53.148Z,3.47
2019-03-25T05:08:22.340Z,3.49
2019-03-25T05:10:51.531Z,3.57
2019-03-25T05:13:20.693Z,3.64
2019-03-25T05:15:49.875Z,3.71
2019-03-25T05:18:19.084Z,3.80
2019-03-25T05:20:48.285Z,3.93
2019-03-25T05:23:17.512Z,3.89
2019-03-25T05:25:46.685Z,4.02
2019-03-25T05:28:15.834Z,4.04
2019-03-25T05:30:44.991Z,4.10
2019-03-25T05:33:14.296Z,4.24
2019-03-25T05:35:43.524Z,4.21
2019-03-25T05:38:12.698Z,4.40
2019-03-25T05:40:41.852Z,4.35
2019-03-25T05:43:10.996Z,4.44
2019-03-25T05:45:40.136Z,4.45
2019-03-25T05:48:09.346Z,4.55
2019-03-25T05:50:38.496Z,4.68
2019-03-25T05:53:07.669Z,4.67
2019-03-25T05:55:36.947Z,4.73
2019-03-25T05:58:06.143Z,4.78
2019-03-25T06:00:36.698Z,4.77
2019-03-25T06:03:06.000Z,4.75
2019-03-25T06:05:35.186Z,4.86
2019-03-25T06:08:04.444Z,4.85
2019-03-25T06:10:33.600Z,4.84
2019-03-25T06:13:02.789Z,4.89
2019-03-25T06:15:31.942Z,4.95
2019-03-25T06:18:01.103Z,5.03
2019-03-25T06:20:30.275Z,5.08
2019-03-25T06:22:59.460Z,5.34
2019-03-25T06:25:28.659Z,5.30
2019-03-25T06:27:58.064Z,5.17
2019-03-25T06:30:30.169Z,5.14
2019-03-25T06:32:59.561Z,5.31
2019-03-25T06:35:28.709Z,5.31
2019-03-25T06:37:57.899Z,5.29
2019-03-25T06:40:27.079Z,5.34
2019-03-25T06:42:56.261Z,5.34
2019-03-25T06:45:25.465Z,5.29
2019-03-25T06:47:54.679Z,5.33
2019-03-25T06:50:23.827Z,5.35
2019-03-25T06:52:53.701Z,5.33
2019-03-25T06:55:22.863Z,5.32
2019-03-25T06:57:52.112Z,5.37
2019-03-25T07:00:21.768Z,5.53
2019-03-25T07:02:50.944Z,5.64
2019-03-25T07:05:20.219Z,5.78
2019-03-25T07:07:49.416Z,5.91
2019-03-25T07:10:31.515Z,6.10
2019-03-25T07:13:01.265Z,6.36
2019-03-25T07:15:30.556Z,6.45
2019-03-25T07:17:59.796Z,6.50
2019-03-25T07:20:29.126Z,6.47
2019-03-25T07:22:58.437Z,6.52
2019-03-25T07:25:27.627Z,6.52
2019-03-25T07:27:56.905Z,6.52
2019-03-25T07:30:26.082Z,6.41
2019-03-25T07:32:55.240Z,6.35
2019-03-25T07:35:24.431Z,6.34
2019-03-25T07:37:53.568Z,6.24
2019-03-25T07:40:22.756Z,6.27
2019-03-25T07:42:52.016Z,6.32
2019-03-25T07:45:21.216Z,6.44
2019-03-25T07:47:50.385Z,6.34
2019-03-25T07:50:19.705Z,6.35
2019-03-25T07:52:48.854Z,6.37
2019-03-25T07:55:18.054Z,6.23
2019-03-25T07:57:48.616Z,6.28
2019-03-25T08:00:18.568Z,6.12
2019-03-25T08:02:47.771Z,6.02
2019-03-25T08:05:17.073Z,6.03
2019-03-25T08:07:49.837Z,5.96
2019-03-25T08:10:34.936Z,6.14
2019-03-25T08:13:04.338Z,6.29
2019-03-25T08:15:33.883Z,6.35
2019-03-25T08:18:03.190Z,6.47
2019-03-25T08:20:32.464Z,6.57
2019-03-25T08:23:01.621Z,6.68
2019-03-25T08:25:30.965Z,6.66
2019-03-25T08:28:00.688Z,6.88
2019-03-25T08:30:30.068Z,6.94
2019-03-25T08:32:59.390Z,6.77
2019-03-25T08:35:28.655Z,6.89
2019-03-25T08:37:57.885Z,6.78
2019-03-25T08:40:27.125Z,6.94
2019-03-25T08:42:56.277Z,7.08
2019-03-25T08:45:25.547Z,7.21
2019-03-25T08:47:54.748Z,7.21
2019-03-25T08:50:23.994Z,7.28
2019-03-25T08:52:53.332Z,7.38
2019-03-25T08:55:22.548Z,7.49
2019-03-25T08:57:51.834Z,7.60
2019-03-25T09:00:21.245Z,7.55
2019-03-25T09:02:50.419Z,7.59
2019-03-25T09:05:19.830Z,7.50
2019-03-25T09:07:49.033Z,7.64
2019-03-25T09:10:18.364Z,7.75
2019-03-25T09:12:47.553Z,7.74
2019-03-25T09:15:16.853Z,7.80
2019-03-25T09:17:46.250Z,7.92
2019-03-25T09:20:15.893Z,7.99
2019-03-25T09:22:45.465Z,8.03
2019-03-25T09:25:17.149Z,8.24
2019-03-25T09:27:46.346Z,8.33
2019-03-25T09:30:36.051Z,8.52
2019-03-25T09:33:05.367Z,8.71
2019-03-25T09:35:34.583Z,8.75
2019-03-25T09:38:03.904Z,8.88
2019-03-25T09:40:33.051Z,8.96
2019-03-25T09:43:02.277Z,8.90
2019-03-25T09:45:31.463Z,8.49
2019-03-25T09:48:00.711Z,8.65
2019-03-25T09:50:29.948Z,8.84
2019-03-25T09:52:59.170Z,8.79
2019-03-25T09:55:28.391Z,8.91
2019-03-25T09:57:57.582Z,9.08
2019-03-25T10:00:31.677Z,9.04
2019-03-25T10:03:01.047Z,9.33
2019-03-25T10:05:30.491Z,9.59
2019-03-25T10:07:59.660Z,9.59
2019-03-25T10:10:28.890Z,9.59
2019-03-25T10:12:58.440Z,9.70
2019-03-25T10:15:27.683Z,9.52
2019-03-25T10:17:56.953Z,9.32
2019-03-25T10:20:26.866Z,9.18
2019-03-25T10:22:56.307Z,9.03
2019-03-25T10:25:25.574Z,9.04
2019-03-25T10:27:54.834Z,8.72
2019-03-25T10:30:24.453Z,7.87
2019-03-25T10:32:53.705Z,7.44
2019-03-25T10:35:22.873Z,7.40
2019-03-25T10:37:52.124Z,7.39
2019-03-25T10:40:21.299Z,7.78
2019-03-25T10:42:51.105Z,8.14
2019-03-25T10:45:20.363Z,8.28
2019-03-25T10:47:49.532Z,8.30
2019-03-25T10:50:19.792Z,8.48
2019-03-25T10:52:49.001Z,8.74
2019-03-25T10:55:18.253Z,8.72
2019-03-25T10:57:47.447Z,8.67
2019-03-25T11:00:17.191Z,8.84
2019-03-25T11:02:46.435Z,8.96
2019-03-25T11:05:15.718Z,9.17
2019-03-25T11:07:44.935Z,9.21
2019-03-25T11:10:14.409Z,8.70
2019-03-25T11:12:43.603Z,8.88
2019-03-25T11:15:13.453Z,8.96
2019-03-25T11:17:42.703Z,8.90
2019-03-25T11:20:12.245Z,8.91
2019-03-25T11:22:41.394Z,8.86
2019-03-25T11:25:12.290Z,8.90
2019-03-25T11:27:41.467Z,8.83
2019-03-25T11:30:11.355Z,8.97
2019-03-25T11:32:40.694Z,8.98
2019-03-25T11:35:10.519Z,9.10
2019-03-25T11:37:39.765Z,9.07
2019-03-25T11:40:10.965Z,8.81
2019-03-25T11:42:40.198Z,8.66
2019-03-25T11:45:10.243Z,8.58
2019-03-25T11:47:39.505Z,8.09
2019-03-25T11:50:09.439Z,7.66
2019-03-25T11:52:38.683Z,7.33
2019-03-25T11:55:09.734Z,6.81
2019-03-25T11:58:08.057Z,6.71
2019-03-25T12:00:37.325Z,6.82
2019-03-25T12:03:06.565Z,7.03
2019-03-25T12:05:35.801Z,7.23
2019-03-25T12:08:05.302Z,7.36
2019-03-25T12:10:34.648Z,7.42
2019-03-25T12:13:03.874Z,7.58
2019-03-25T12:15:33.193Z,7.76
2019-03-25T12:18:02.373Z,7.81
2019-03-25T12:20:31.631Z,7.76
2019-03-25T12:23:09.830Z,7.91
2019-03-25T12:35:49.316Z,8.81
2019-03-25T12:38:18.630Z,9.00
2019-03-25T12:40:53.962Z,9.09
2019-03-25T12:43:24.131Z,9.19
2019-03-25T12:46:04.549Z,9.26
2019-03-25T12:48:38.025Z,9.13
2019-03-25T12:51:07.282Z,9.20
2019-03-25T12:53:36.540Z,9.23
2019-03-25T12:56:05.787Z,9.19
2019-03-25T12:58:35.034Z,9.22
2019-03-25T13:01:04.284Z,9.33
2019-03-25T13:03:33.458Z,9.51
2019-03-25T13:06:02.800Z,9.74
2019-03-25T13:08:33.471Z,9.86
2019-03-25T13:11:02.696Z,10.11
2019-03-25T13:13:31.864Z,10.28
2019-03-25T13:16:01.047Z,9.98
2019-03-25T13:18:32.820Z,10.01
2019-03-25T13:21:08.792Z,10.25
2019-03-25T13:23:37.986Z,10.17
2019-03-25T13:26:07.172Z,9.82
2019-03-25T13:28:36.335Z,9.56
2019-03-25T13:31:05.537Z,9.05
2019-03-25T13:33:34.718Z,8.66
2019-03-25T13:36:04.168Z,8.38
2019-03-25T13:38:33.346Z,8.30
2019-03-25T13:41:02.535Z,8.32
2019-03-25T13:43:31.720Z,8.52
2019-03-25T13:46:05.293Z,8.37
2019-03-25T13:48:31.902Z,8.01
2019-03-25T13:51:01.049Z,8.36
2019-03-25T13:53:30.214Z,8.52
2019-03-25T13:55:59.355Z,8.57
2019-03-25T13:58:28.933Z,8.80
2019-03-25T14:00:58.214Z,8.97
2019-03-25T14:03:27.400Z,9.08
2019-03-25T14:05:56.617Z,9.33
2019-03-25T14:08:25.821Z,9.20
2019-03-25T14:10:55.061Z,9.40
2019-03-25T14:13:24.244Z,9.33
2019-03-25T14:15:53.428Z,9.36
2019-03-25T14:18:22.691Z,9.11
2019-03-25T14:20:51.846Z,8.96
2019-03-25T14:23:21.017Z,8.80
2019-03-25T14:25:50.277Z,8.67
2019-03-25T14:28:19.459Z,8.62
2019-03-25T14:30:48.636Z,8.61
2019-03-25T14:33:17.784Z,8.47
2019-03-25T14:35:46.963Z,8.56
2019-03-25T14:38:16.158Z,8.46
2019-03-25T14:40:46.222Z,8.46
2019-03-25T14:43:15.372Z,8.75
2019-03-25T14:45:45.277Z,8.92
2019-03-25T14:48:14.517Z,9.03
2019-03-25T14:50:43.790Z,9.16
2019-03-25T14:53:12.956Z,9.22
2019-03-25T14:55:42.271Z,9.20
2019-03-25T14:58:11.407Z,9.33
2019-03-25T15:00:40.664Z,9.37
2019-03-25T15:03:09.809Z,9.28
2019-03-25T15:05:39.147Z,9.47
2019-03-25T15:08:08.306Z,9.62
2019-03-25T15:10:37.479Z,9.69
2019-03-25T15:13:06.739Z,9.85
2019-03-25T15:15:35.906Z,9.58
2019-03-25T15:18:15.001Z,9.39
2019-03-25T15:20:35.969Z,9.23
2019-03-25T15:23:05.201Z,8.83
2019-03-25T15:25:34.884Z,8.60
2019-03-25T15:28:04.099Z,8.49
2019-03-25T15:30:36.339Z,8.54
2019-03-25T15:33:04.319Z,8.68
2019-03-25T15:35:33.481Z,8.78
2019-03-25T15:38:02.647Z,8.99
2019-03-25T15:47:47.211Z,9.23
2019-03-25T15:54:00.413Z,9.45
2019-03-25T15:57:04.583Z,9.61
2019-03-25T15:59:43.663Z,9.33
2019-03-25T16:04:58.000Z,9.54
2019-03-25T16:14:29.451Z,9.49
2019-03-25T16:16:58.613Z,9.47
2019-03-25T16:20:31.415Z,9.53
2019-03-25T16:23:16.923Z,9.64
2019-03-25T16:25:47.801Z,9.40
2019-03-25T16:28:27.363Z,9.31
2019-03-25T16:31:08.651Z,9.34
2019-03-25T16:33:38.108Z,9.43
2019-03-25T16:44:40.415Z,9.45
2019-03-25T16:55:35.363Z,9.09
2019-03-25T17:09:35.202Z,8.86
2019-03-25T17:18:56.306Z,8.84
2019-03-25T17:21:58.004Z,8.76
2019-03-25T17:25:17.226Z,8.66
2019-03-25T17:28:31.363Z,8.59
2019-03-25T17:31:09.121Z,8.47
2019-03-25T17:33:50.067Z,8.44
2019-03-25T17:36:41.172Z,8.32
2019-03-25T17:39:36.825Z,8.20
2019-03-25T17:42:21.002Z,8.04
2019-03-25T17:51:22.160Z,7.79
2019-03-25T17:54:03.979Z,7.39
2019-03-25T18:01:17.855Z,7.20
2019-03-25T18:04:11.222Z,6.61
2019-03-25T18:06:56.222Z,6.72
2019-03-25T18:09:43.855Z,6.70
2019-03-25T18:12:58.571Z,6.78
2019-03-25T18:16:18.914Z,6.85
2019-03-25T18:22:39.263Z,6.67
2019-03-25T18:28:40.188Z,6.45
2019-03-25T18:31:43.723Z,6.37
2019-03-25T18:34:27.267Z,6.08
2019-03-25T18:37:33.053Z,6.24
2019-03-25T18:40:33.379Z,5.92
2019-03-25T18:43:28.252Z,5.88
2019-03-25T18:46:18.777Z,5.78
2019-03-25T18:49:43.183Z,5.89
2019-03-25T18:52:35.387Z,5.80
2019-03-25T18:55:24.053Z,5.65
2019-03-25T18:58:07.150Z,5.45
2019-03-25T19:00:47.365Z,5.30
2019-03-25T19:04:11.870Z,5.33
2019-03-25T19:06:54.499Z,5.16
2019-03-25T19:09:37.943Z,5.15
2019-03-25T19:12:15.815Z,5.14
2019-03-25T19:15:31.240Z,4.99
2019-03-25T19:18:22.648Z,5.05
2019-03-25T19:21:01.427Z,4.95
2019-03-25T19:23:59.674Z,5.03
2019-03-25T19:26:45.322Z,5.03
2019-03-25T19:29:29.119Z,4.87
2019-03-25T19:32:08.847Z,4.85
2019-03-25T19:35:14.740Z,4.90
2019-03-25T19:38:23.944Z,5.09
2019-03-25T19:44:46.241Z,5.41
2019-03-25T19:47:37.612Z,5.54
2019-03-25T19:50:41.383Z,5.74
2019-03-25T19:53:49.778Z,5.75
2019-03-25T19:56:42.739Z,5.79
2019-03-25T20:02:37.070Z,6.05
2019-03-25T20:05:37.513Z,6.21
2019-03-25T20:08:25.210Z,6.33
2019-03-25T20:18:52.239Z,6.52
2019-03-25T20:42:38.517Z,6.28
2019-03-25T20:48:54.481Z,6.22
2019-03-25T20:52:18.709Z,6.16
2019-03-25T20:59:36.009Z,6.08
2019-03-25T21:02:44.186Z,6.01
2019-03-25T21:05:33.984Z,5.92
2019-03-25T21:09:13.945Z,5.95
2019-03-25T21:15:30.734Z,5.79
2019-03-25T21:22:04.955Z,5.88
2019-03-25T21:25:08.097Z,6.09
2019-03-25T21:29:07.018Z,6.06
2019-03-25T21:39:29.110Z,5.99
2019-03-25T21:42:14.709Z,6.05
2019-03-25T21:44:40.802Z,5.94
2019-03-25T21:47:54.046Z,5.95
2019-03-25T21:51:05.884Z,5.91
2019-03-25T21:53:59.227Z,5.70
2019-03-25T21:57:06.297Z,5.77
2019-03-25T22:00:06.354Z,5.75
2019-03-25T22:07:49.237Z,5.85
2019-03-25T22:09:57.288Z,5.68
2019-03-25T22:16:46.853Z,5.64
2019-03-25T22:19:59.425Z,5.61
2019-03-25T22:29:29.769Z,6.02
2019-03-25T22:36:47.361Z,6.07
2019-03-25T22:38:48.915Z,6.14
2019-03-25T22:45:35.525Z,6.12
2019-03-25T22:48:22.792Z,6.06
2019-03-25T22:50:48.780Z,6.27
2019-03-25T22:53:40.459Z,6.30
2019-03-25T22:56:41.890Z,6.33
2019-03-25T23:00:43.838Z,6.34
2019-03-25T23:03:01.185Z,6.41
2019-03-25T23:05:31.874Z,6.42
2019-03-25T23:08:01.053Z,6.43
2019-03-25T23:11:02.307Z,6.40
2019-03-25T23:13:50.797Z,6.41
2019-03-25T23:16:26.225Z,6.51
2019-03-25T23:19:52.487Z,6.53
2019-03-25T23:22:57.945Z,6.44
2019-03-25T23:25:30.694Z,6.51
2019-03-25T23:28:02.505Z,6.38
2019-03-25T23:31:33.957Z,6.42
2019-03-25T23:34:45.438Z,6.46
2019-03-25T23:41:15.603Z,6.41
2019-03-25T23:48:05.404Z,6.28
2019-03-25T23:54:26.889Z,6.16
2019-03-25T23:57:46.186Z,6.02
